Time;durP1;ratioP1;P1;durP2;ratioP2;P2;SDS_P1;SDS_P2;PMS_P1;PMS_P2;Temp;Humidity;BMP_temperature;BMP_pressure;BME280_temperature;BME280_humidity;BME280_pressure;Samples;Min_cycle;Max_cycle;Signal;HPM_P1;HPM_P2
2022/05/16 00:00:35;;;;;;;;;;;20.10;39.30;;;;;;5114723;28;19963;-54
2022/05/16 00:03:01;;;;;;;;;;;20.10;39.30;;;;;;5099641;28;19920;-56
2022/05/16 00:05:29;;;;;;;;;;;20.10;39.30;;;;;;5096192;28;19924;-53
2022/05/16 00:07:56;;;;;;;;;;;20.10;39.30;;;;;;5140151;27;19948;-54
2022/05/16 00:10:23;;;;;;;;;;;20.10;39.30;;;;;;5115001;28;19926;-55
2022/05/16 00:12:49;;;;;;;;;;;20.10;39.40;;;;;;5118010;28;19951;-56
2022/05/16 00:15:17;;;;;;;;;;;20.10;39.40;;;;;;5116209;28;20329;-55
2022/05/16 00:17:44;;;;;;;;;;;20.10;39.30;;;;;;5117439;28;20264;-56
2022/05/16 00:20:11;;;;;;;;;;;20.10;39.30;;;;;;5117800;28;20260;-54
2022/05/16 00:22:39;;;;;;;;;;;20.10;39.30;;;;;;5116648;28;19920;-56
2022/05/16 00:25:06;;;;;;;;;;;20.10;39.40;;;;;;5116731;28;20249;-52
2022/05/16 00:27:34;;;;;;;;;;;20.10;39.40;;;;;;5151889;27;20019;-53
2022/05/16 00:30:00;;;;;;;;;;;20.10;39.40;;;;;;5117176;28;19920;-51
2022/05/16 00:32:27;;;;;;;;;;;20.10;39.40;;;;;;5116640;28;20402;-55
2022/05/16 00:34:54;;;;;;;;;;;20.10;39.40;;;;;;5116721;28;20340;-53
2022/05/16 00:37:20;;;;;;;;;;;20.10;39.40;;;;;;5118007;28;19919;-53
2022/05/16 00:39:48;;;;;;;;;;;20.10;39.40;;;;;;5116962;28;19926;-54
2022/05/16 00:42:15;;;;;;;;;;;20.10;39.40;;;;;;5117018;28;19958;-56
2022/05/16 00:44:42;;;;;;;;;;;20.10;39.40;;;;;;5116365;28;19963;-52
2022/05/16 00:47:08;;;;;;;;;;;20.10;39.40;;;;;;5117599;28;20358;-55
2022/05/16 00:49:35;;;;;;;;;;;20.10;39.40;;;;;;5117245;28;19957;-55
2022/05/16 00:52:03;;;;;;;;;;;20.10;39.40;;;;;;5114086;28;19985;-55
2022/05/16 00:54:31;;;;;;;;;;;20.10;39.40;;;;;;5113718;28;20312;-56
2022/05/16 00:57:00;;;;;;;;;;;20.10;39.50;;;;;;5115924;28;19991;-51
2022/05/16 00:59:28;;;;;;;;;;;20.10;39.50;;;;;;5115870;28;20010;-53
2022/05/16 01:04:51;;;;;;;;;;;20.10;39.50;;;;;;5115433;28;19926;-55
2022/05/16 01:07:21;;;;;;;;;;;20.10;39.50;;;;;;5115986;28;19926;-56
2022/05/16 01:09:48;;;;;;;;;;;20.10;39.50;;;;;;5116515;28;19964;-56
2022/05/16 01:12:16;;;;;;;;;;;20.00;39.50;;;;;;5116305;28;19926;-53
2022/05/16 01:14:44;;;;;;;;;;;20.00;39.50;;;;;;5111059;28;19919;-53
2022/05/16 01:17:12;;;;;;;;;;;20.00;39.50;;;;;;5115899;28;19920;-53
2022/05/16 01:19:39;;;;;;;;;;;20.00;39.50;;;;;;5115457;28;19958;-55
2022/05/16 01:22:06;;;;;;;;;;;20.00;39.50;;;;;;5115409;28;19920;-56
2022/05/16 01:24:34;;;;;;;;;;;20.00;39.60;;;;;;5113545;28;21823;-55
2022/05/16 01:27:01;;;;;;;;;;;20.00;39.60;;;;;;5113846;28;20003;-56
2022/05/16 01:29:28;;;;;;;;;;;20.00;39.60;;;;;;5116224;28;19919;-55
2022/05/16 01:31:55;;;;;;;;;;;20.00;39.70;;;;;;5113128;28;20007;-56
2022/05/16 01:34:21;;;;;;;;;;;20.00;40.30;;;;;;5113489;28;20010;-55
2022/05/16 01:36:48;;;;;;;;;;;20.00;39.70;;;;;;5116223;28;19920;-56
2022/05/16 01:39:14;;;;;;;;;;;20.00;39.80;;;;;;5116745;28;19920;-56
2022/05/16 01:41:43;;;;;;;;;;;19.90;39.70;;;;;;5116486;28;20390;-56
2022/05/16 01:44:10;;;;;;;;;;;19.90;39.60;;;;;;5115624;28;19926;-56
2022/05/16 01:46:37;;;;;;;;;;;19.90;39.70;;;;;;5115391;28;20014;-54
2022/05/16 01:49:04;;;;;;;;;;;19.90;39.70;;;;;;5114321;28;19969;-55
2022/05/16 01:51:31;;;;;;;;;;;19.90;39.80;;;;;;5114522;28;20347;-55
2022/05/16 01:53:57;;;;;;;;;;;19.90;39.80;;;;;;5111805;28;20268;-56
2022/05/16 01:56:24;;;;;;;;;;;19.90;39.80;;;;;;5094892;28;19924;-53
2022/05/16 01:58:52;;;;;;;;;;;19.90;39.80;;;;;;5114420;28;20321;-56
2022/05/16 02:01:20;;;;;;;;;;;19.90;39.80;;;;;;5113979;28;19954;-55
2022/05/16 02:04:05;;;;;;;;;;;19.90;39.90;;;;;;5115828;28;19943;-54
2022/05/16 02:06:32;;;;;;;;;;;19.90;39.90;;;;;;5116029;28;20383;-57
2022/05/16 02:08:59;;;;;;;;;;;19.90;40.50;;;;;;5115546;28;19966;-55
2022/05/16 02:11:26;;;;;;;;;;;19.90;39.90;;;;;;5115840;28;20316;-54
2022/05/16 02:13:54;;;;;;;;;;;19.90;39.90;;;;;;5114278;28;19920;-53
2022/05/16 02:16:20;;;;;;;;;;;19.90;39.90;;;;;;5109258;28;19919;-55
2022/05/16 02:18:47;;;;;;;;;;;19.90;40.00;;;;;;5113720;28;19919;-57
2022/05/16 02:26:46;;;;;;;;;;;19.90;40.00;;;;;;5103902;28;20056;-52
2022/05/16 02:29:15;;;;;;;;;;;19.90;40.00;;;;;;5112274;28;19919;-57
2022/05/16 02:31:42;;;;;;;;;;;19.90;40.00;;;;;;5113479;28;19980;-52
2022/05/16 02:34:09;;;;;;;;;;;19.90;40.00;;;;;;5114200;28;19980;-56
2022/05/16 02:36:37;;;;;;;;;;;19.90;40.00;;;;;;5105454;28;20182;-56
2022/05/16 02:39:04;;;;;;;;;;;19.90;40.00;;;;;;5107011;28;20284;-59
2022/05/16 02:41:30;;;;;;;;;;;19.90;40.00;;;;;;5106335;28;19919;-57
2022/05/16 02:43:57;;;;;;;;;;;19.90;40.10;;;;;;5110018;28;20365;-56
2022/05/16 02:46:25;;;;;;;;;;;19.90;40.00;;;;;;5106352;28;19920;-56
2022/05/16 02:48:52;;;;;;;;;;;19.90;40.10;;;;;;5123855;28;20174;-57
2022/05/16 02:51:19;;;;;;;;;;;19.90;40.10;;;;;;5103791;28;19947;-56
2022/05/16 02:53:45;;;;;;;;;;;19.90;40.10;;;;;;5111863;28;19919;-57
2022/05/16 02:56:12;;;;;;;;;;;19.90;40.10;;;;;;5102881;28;20007;-55
2022/05/16 02:58:40;;;;;;;;;;;19.90;40.10;;;;;;5091437;28;19973;-59
2022/05/16 03:01:07;;;;;;;;;;;19.90;40.10;;;;;;5112290;28;19919;-56
2022/05/16 03:03:35;;;;;;;;;;;19.90;40.10;;;;;;5111069;28;20044;-56
2022/05/16 03:06:01;;;;;;;;;;;19.90;40.10;;;;;;5103104;28;20283;-55
2022/05/16 03:08:28;;;;;;;;;;;19.90;40.10;;;;;;5111017;28;19973;-57
2022/05/16 03:10:57;;;;;;;;;;;19.90;40.20;;;;;;5108999;28;20353;-54
2022/05/16 03:13:23;;;;;;;;;;;19.80;40.10;;;;;;5111990;28;19924;-57
2022/05/16 03:15:50;;;;;;;;;;;19.80;40.10;;;;;;5108740;28;20375;-57
2022/05/16 03:18:17;;;;;;;;;;;19.80;40.10;;;;;;5111895;28;19993;-57
2022/05/16 03:20:45;;;;;;;;;;;19.80;40.10;;;;;;5108773;28;20005;-57
2022/05/16 03:23:12;;;;;;;;;;;19.80;40.10;;;;;;5106300;28;20018;-56
2022/05/16 03:25:39;;;;;;;;;;;19.80;40.10;;;;;;5098147;28;19926;-56
2022/05/16 03:28:06;;;;;;;;;;;19.80;40.10;;;;;;5110225;28;19960;-57
2022/05/16 03:30:33;;;;;;;;;;;19.80;40.10;;;;;;5100695;28;19955;-56
2022/05/16 03:33:00;;;;;;;;;;;19.80;40.10;;;;;;5102755;28;20006;-58
2022/05/16 03:35:26;;;;;;;;;;;19.80;40.10;;;;;;5114126;28;19974;-57
2022/05/16 03:37:54;;;;;;;;;;;19.80;40.10;;;;;;5097076;28;19924;-54
2022/05/16 03:43:05;;;;;;;;;;;19.80;40.10;;;;;;5094823;28;20410;-56
2022/05/16 03:45:32;;;;;;;;;;;19.80;40.10;;;;;;5114005;28;19920;-55
2022/05/16 03:47:59;;;;;;;;;;;19.80;40.10;;;;;;5113389;28;20006;-52
2022/05/16 03:50:26;;;;;;;;;;;19.80;40.20;;;;;;5115028;28;19983;-58
2022/05/16 03:52:53;;;;;;;;;;;19.80;40.10;;;;;;5113532;28;19959;-54
2022/05/16 03:55:21;;;;;;;;;;;19.80;40.20;;;;;;5110633;28;20314;-59
2022/05/16 03:57:48;;;;;;;;;;;19.80;40.20;;;;;;5113661;28;19920;-57
2022/05/16 04:00:15;;;;;;;;;;;19.80;40.20;;;;;;5102843;28;19920;-54
2022/05/16 04:02:42;;;;;;;;;;;19.80;40.20;;;;;;5113510;28;20002;-58
2022/05/16 04:05:09;;;;;;;;;;;19.80;40.20;;;;;;5113183;28;20014;-58
2022/05/16 04:07:36;;;;;;;;;;;19.80;40.20;;;;;;5105823;28;19924;-59
2022/05/16 04:10:02;;;;;;;;;;;19.80;40.30;;;;;;5094670;28;19920;-57
2022/05/16 04:12:30;;;;;;;;;;;19.80;40.30;;;;;;5112065;28;20331;-54
2022/05/16 04:14:57;;;;;;;;;;;19.80;40.30;;;;;;5111711;28;20300;-59
2022/05/16 04:17:24;;;;;;;;;;;19.80;40.30;;;;;;5112881;28;19970;-56
2022/05/16 04:19:51;;;;;;;;;;;19.80;40.30;;;;;;5108191;28;20356;-58
2022/05/16 04:22:18;;;;;;;;;;;19.80;40.30;;;;;;5113456;28;20022;-57
2022/05/16 04:24:44;;;;;;;;;;;19.80;40.30;;;;;;5098351;28;19994;-57
2022/05/16 04:27:11;;;;;;;;;;;19.80;40.40;;;;;;5129259;27;19927;-58
2022/05/16 04:29:39;;;;;;;;;;;19.80;40.40;;;;;;5093240;28;19977;-58
2022/05/16 04:32:06;;;;;;;;;;;19.70;40.30;;;;;;5109278;28;19928;-59
2022/05/16 04:34:33;;;;;;;;;;;19.80;40.40;;;;;;5115072;28;20015;-57
2022/05/16 04:36:59;;;;;;;;;;;19.70;40.40;;;;;;5107424;28;19928;-59
2022/05/16 04:39:26;;;;;;;;;;;19.70;40.40;;;;;;5114110;28;19920;-60
2022/05/16 04:44:39;;;;;;;;;;;19.70;40.50;;;;;;5109065;28;19924;-59
2022/05/16 04:47:05;;;;;;;;;;;19.70;40.50;;;;;;5100334;28;20620;-58
2022/05/16 04:49:32;;;;;;;;;;;19.70;40.50;;;;;;5119477;27;19926;-56
2022/05/16 04:51:59;;;;;;;;;;;19.70;40.50;;;;;;5102816;28;20022;-57
2022/05/16 04:54:26;;;;;;;;;;;19.70;40.50;;;;;;5124795;27;20242;-57
2022/05/16 04:56:52;;;;;;;;;;;19.70;40.50;;;;;;5118601;27;20027;-57
2022/05/16 04:59:19;;;;;;;;;;;19.70;40.50;;;;;;5101460;28;20026;-56
2022/05/16 05:01:47;;;;;;;;;;;19.70;40.60;;;;;;5093869;28;19927;-58
2022/05/16 05:04:14;;;;;;;;;;;19.70;40.60;;;;;;5090443;28;20281;-53
2022/05/16 05:06:41;;;;;;;;;;;19.70;40.60;;;;;;5131588;27;20307;-55
2022/05/16 05:09:07;;;;;;;;;;;19.70;40.70;;;;;;5109187;28;20092;-55
2022/05/16 05:14:33;;;;;;;;;;;19.70;40.70;;;;;;5110659;28;19930;-52
2022/05/16 05:17:01;;;;;;;;;;;19.70;40.70;;;;;;5098332;28;20323;-58
2022/05/16 05:19:28;;;;;;;;;;;19.70;40.80;;;;;;5109887;28;19923;-59
2022/05/16 05:21:55;;;;;;;;;;;19.70;40.80;;;;;;5109376;28;19927;-59
2022/05/16 05:24:21;;;;;;;;;;;19.70;40.80;;;;;;5102503;28;20394;-57
2022/05/16 05:26:48;;;;;;;;;;;19.70;40.90;;;;;;5108448;28;19928;-59
2022/05/16 05:29:16;;;;;;;;;;;19.60;40.80;;;;;;5109570;28;19919;-55
2022/05/16 05:31:43;;;;;;;;;;;19.60;40.80;;;;;;5129257;27;19927;-58
2022/05/16 05:34:11;;;;;;;;;;;19.60;40.90;;;;;;5106151;28;19920;-58
2022/05/16 05:36:38;;;;;;;;;;;19.60;40.90;;;;;;5093902;28;19927;-58
2022/05/16 05:39:05;;;;;;;;;;;19.60;40.90;;;;;;5105159;28;19927;-58
2022/05/16 05:41:31;;;;;;;;;;;19.60;41.00;;;;;;5093250;27;20137;-56
2022/05/16 05:43:58;;;;;;;;;;;19.60;41.00;;;;;;5114571;27;19931;-57
2022/05/16 05:46:26;;;;;;;;;;;19.60;41.10;;;;;;5084607;27;20046;-60
2022/05/16 05:48:53;;;;;;;;;;;19.60;41.20;;;;;;5093562;28;19932;-54
2022/05/16 05:51:21;;;;;;;;;;;19.60;41.30;;;;;;5100974;28;20014;-56
2022/05/16 05:53:48;;;;;;;;;;;19.60;41.30;;;;;;5103543;28;19931;-57
2022/05/16 05:56:15;;;;;;;;;;;19.60;41.40;;;;;;5100808;28;20036;-53
2022/05/16 05:58:42;;;;;;;;;;;19.60;41.40;;;;;;5094251;28;19924;-56
2022/05/16 06:01:09;;;;;;;;;;;19.50;41.40;;;;;;5129223;27;20018;-56
2022/05/16 06:03:35;;;;;;;;;;;19.50;41.40;;;;;;5102168;27;19920;-58
2022/05/16 06:06:02;;;;;;;;;;;19.50;41.40;;;;;;5095480;28;19924;-55
2022/05/16 06:08:30;;;;;;;;;;;19.60;41.60;;;;;;5102955;27;19959;-59
2022/05/16 06:10:57;;;;;;;;;;;19.50;41.40;;;;;;5092751;27;19941;-54
2022/05/16 06:13:24;;;;;;;;;;;19.50;41.40;;;;;;5088999;27;20490;-59
2022/05/16 06:15:50;;;;;;;;;;;19.60;41.60;;;;;;5088139;27;20424;-56
2022/05/16 06:18:17;;;;;;;;;;;19.60;41.60;;;;;;5091847;27;19928;-54
2022/05/16 06:20:44;;;;;;;;;;;19.60;41.60;;;;;;5087402;27;20555;-59
2022/05/16 06:23:10;;;;;;;;;;;19.60;41.60;;;;;;5110738;27;20580;-56
2022/05/16 06:25:42;;;;;;;;;;;19.60;41.60;;;;;;5100975;27;19926;-56
2022/05/16 06:28:09;;;;;;;;;;;19.60;41.60;;;;;;5090405;27;20041;-56
2022/05/16 06:30:37;;;;;;;;;;;19.60;41.60;;;;;;5088204;27;19943;-58
2022/05/16 06:33:04;;;;;;;;;;;19.60;41.50;;;;;;5115944;27;19969;-55
2022/05/16 06:35:31;;;;;;;;;;;19.60;41.50;;;;;;5089401;27;19958;-58
2022/05/16 06:38:03;;;;;;;;;;;19.60;41.40;;;;;;5108401;28;20536;-56
2022/05/16 06:40:30;;;;;;;;;;;19.60;41.40;;;;;;5094686;28;20026;-57
2022/05/16 06:42:58;;;;;;;;;;;19.60;41.30;;;;;;5088383;28;19927;-58
2022/05/16 06:45:25;;;;;;;;;;;19.60;41.30;;;;;;5109312;28;19965;-56
2022/05/16 06:47:52;;;;;;;;;;;19.70;41.60;;;;;;5101982;28;20025;-57
2022/05/16 06:50:18;;;;;;;;;;;19.70;41.80;;;;;;5093179;28;20352;-59
2022/05/16 06:52:45;;;;;;;;;;;19.60;41.90;;;;;;5096624;28;20294;-57
2022/05/16 06:55:12;;;;;;;;;;;19.60;42.00;;;;;;5091817;28;20380;-59
2022/05/16 06:57:38;;;;;;;;;;;19.60;42.00;;;;;;5099014;28;20003;-57
2022/05/16 07:00:09;;;;;;;;;;;19.60;42.10;;;;;;5108683;28;19920;-57
2022/05/16 07:02:35;;;;;;;;;;;19.60;42.10;;;;;;5110308;28;19942;-55
2022/05/16 07:05:02;;;;;;;;;;;19.50;42.00;;;;;;5136053;27;20367;-59
2022/05/16 07:07:29;;;;;;;;;;;19.50;42.10;;;;;;5103327;27;19932;-58
2022/05/16 07:09:56;;;;;;;;;;;19.50;42.10;;;;;;5104589;28;20002;-59
2022/05/16 07:12:22;;;;;;;;;;;19.50;42.10;;;;;;5104983;27;19926;-60
2022/05/16 07:14:49;;;;;;;;;;;19.50;42.10;;;;;;5094651;28;19939;-58
2022/05/16 07:17:17;;;;;;;;;;;19.50;42.10;;;;;;5107011;27;20027;-57
2022/05/16 07:19:46;;;;;;;;;;;19.50;42.10;;;;;;5096382;28;20032;-58
2022/05/16 07:22:14;;;;;;;;;;;19.50;42.10;;;;;;5103680;28;19989;-57
2022/05/16 07:24:41;;;;;;;;;;;19.50;42.10;;;;;;5108458;28;19919;-59
2022/05/16 07:29:52;;;;;;;;;;;19.50;42.10;;;;;;5108511;28;19945;-59
2022/05/16 07:32:21;;;;;;;;;;;19.50;42.10;;;;;;5098649;28;19955;-57
2022/05/16 07:34:47;;;;;;;;;;;19.50;42.00;;;;;;5099650;28;19931;-60
2022/05/16 07:37:14;;;;;;;;;;;19.60;42.10;;;;;;5097663;28;20349;-59
2022/05/16 07:39:41;;;;;;;;;;;19.60;42.10;;;;;;5101831;27;19926;-56
2022/05/16 07:42:08;;;;;;;;;;;19.60;42.10;;;;;;5105356;28;19943;-53
2022/05/16 07:44:35;;;;;;;;;;;19.60;42.10;;;;;;5131566;27;20277;-57
2022/05/16 07:47:01;;;;;;;;;;;19.60;42.10;;;;;;5101531;28;20198;-56
2022/05/16 07:49:29;;;;;;;;;;;19.60;42.20;;;;;;5103755;27;19994;-56
2022/05/16 07:51:56;;;;;;;;;;;19.60;42.20;;;;;;5129131;27;19938;-60
2022/05/16 07:54:23;;;;;;;;;;;19.60;42.20;;;;;;5093200;28;19920;-58
2022/05/16 07:56:49;;;;;;;;;;;19.60;42.10;;;;;;5105379;28;20427;-53
2022/05/16 07:59:17;;;;;;;;;;;19.60;42.20;;;;;;5103696;28;19991;-58
2022/05/16 08:01:44;;;;;;;;;;;19.60;42.20;;;;;;5105720;27;19942;-54
2022/05/16 08:04:12;;;;;;;;;;;19.60;42.20;;;;;;5106297;28;20292;-58
2022/05/16 08:06:40;;;;;;;;;;;19.60;42.20;;;;;;5131890;27;20019;-54
2022/05/16 08:11:51;;;;;;;;;;;19.70;42.20;;;;;;5103366;27;19926;-57
2022/05/16 08:14:18;;;;;;;;;;;19.70;42.20;;;;;;5103872;28;20046;-58
2022/05/16 08:16:45;;;;;;;;;;;19.70;42.10;;;;;;5128437;27;19965;-56
2022/05/16 08:19:12;;;;;;;;;;;19.70;42.10;;;;;;5091360;28;19927;-55
2022/05/16 08:21:39;;;;;;;;;;;19.70;42.00;;;;;;5093630;28;20385;-57
2022/05/16 08:24:09;;;;;;;;;;;19.70;42.00;;;;;;5098678;28;19927;-57
2022/05/16 08:26:36;;;;;;;;;;;19.70;42.00;;;;;;5108578;28;19971;-56
2022/05/16 08:29:03;;;;;;;;;;;19.70;42.00;;;;;;5102260;28;20044;-59
2022/05/16 08:31:29;;;;;;;;;;;19.70;42.00;;;;;;5092632;27;19946;-57
2022/05/16 08:33:57;;;;;;;;;;;19.70;42.00;;;;;;5098765;28;19920;-58
2022/05/16 08:41:54;;;;;;;;;;;19.80;42.10;;;;;;5122727;27;19940;-59
2022/05/16 08:44:21;;;;;;;;;;;19.80;42.20;;;;;;5093582;28;20471;-54
2022/05/16 08:46:48;;;;;;;;;;;19.80;42.20;;;;;;5129871;27;19928;-59
2022/05/16 08:49:18;;;;;;;;;;;19.80;42.10;;;;;;5102893;28;20377;-57
2022/05/16 08:51:44;;;;;;;;;;;19.80;42.10;;;;;;5093471;27;19926;-59
2022/05/16 08:54:13;;;;;;;;;;;19.80;42.10;;;;;;5115331;27;19938;-58
2022/05/16 08:56:41;;;;;;;;;;;19.80;42.10;;;;;;5113520;27;20257;-58
2022/05/16 08:59:08;;;;;;;;;;;19.80;42.10;;;;;;5094809;28;20419;-55
2022/05/16 09:01:35;;;;;;;;;;;19.80;42.20;;;;;;5119991;27;20284;-58
2022/05/16 09:04:03;;;;;;;;;;;19.80;42.10;;;;;;5096657;28;20093;-59
2022/05/16 09:06:31;;;;;;;;;;;19.90;42.20;;;;;;5109042;28;19950;-56
2022/05/16 09:08:59;;;;;;;;;;;19.90;42.20;;;;;;5104465;28;19926;-59
2022/05/16 09:11:28;;;;;;;;;;;19.90;42.20;;;;;;5104137;28;19920;-58
2022/05/16 09:13:55;;;;;;;;;;;19.90;42.30;;;;;;5135337;27;19959;-61
2022/05/16 09:16:31;;;;;;;;;;;19.90;42.30;;;;;;5129419;27;20365;-58
2022/05/16 09:19:00;;;;;;;;;;;19.90;42.30;;;;;;5103693;27;19930;-58
2022/05/16 09:21:27;;;;;;;;;;;19.90;42.20;;;;;;5094429;28;20010;-58
2022/05/16 09:23:57;;;;;;;;;;;19.90;42.20;;;;;;5108191;27;19924;-57
2022/05/16 09:26:26;;;;;;;;;;;19.90;42.30;;;;;;5109718;28;19927;-59
2022/05/16 09:28:57;;;;;;;;;;;19.90;42.30;;;;;;5094477;27;19980;-56
2022/05/16 09:31:25;;;;;;;;;;;20.00;42.40;;;;;;5098202;27;19935;-58
2022/05/16 09:33:52;;;;;;;;;;;20.00;42.40;;;;;;5098649;28;20085;-56
2022/05/16 09:36:20;;;;;;;;;;;20.00;42.50;;;;;;5136317;27;20012;-56
2022/05/16 09:38:47;;;;;;;;;;;20.00;42.50;;;;;;5106770;28;19928;-58
2022/05/16 09:41:21;;;;;;;;;;;20.00;42.50;;;;;;5125526;27;19959;-54
2022/05/16 09:43:52;;;;;;;;;;;20.00;42.50;;;;;;5110458;28;19986;-56
2022/05/16 09:46:24;;;;;;;;;;;20.00;42.40;;;;;;5098979;28;19920;-59
2022/05/16 09:48:56;;;;;;;;;;;20.00;42.60;;;;;;5123636;27;19919;-57
2022/05/16 09:51:23;;;;;;;;;;;20.00;42.70;;;;;;5090270;28;20351;-58
2022/05/16 09:53:51;;;;;;;;;;;20.10;42.60;;;;;;5096163;28;20335;-57
2022/05/16 09:56:20;;;;;;;;;;;20.10;42.70;;;;;;5098677;28;19951;-58
2022/05/16 09:58:48;;;;;;;;;;;20.10;42.80;;;;;;5104396;27;19919;-60
2022/05/16 10:01:28;;;;;;;;;;;20.10;42.60;;;;;;5109300;28;20377;-59
2022/05/16 10:03:56;;;;;;;;;;;20.10;42.50;;;;;;5108661;28;19951;-60
2022/05/16 10:06:27;;;;;;;;;;;20.10;42.60;;;;;;5099020;28;19956;-60
2022/05/16 10:08:54;;;;;;;;;;;20.10;42.50;;;;;;5124643;27;19931;-59
2022/05/16 10:11:22;;;;;;;;;;;20.10;42.50;;;;;;5089493;28;20023;-59
2022/05/16 10:13:48;;;;;;;;;;;20.10;42.50;;;;;;5107119;28;19924;-59
2022/05/16 10:16:15;;;;;;;;;;;20.20;42.60;;;;;;5109486;28;20022;-60
2022/05/16 10:18:43;;;;;;;;;;;20.10;42.40;;;;;;5110661;28;19970;-58
2022/05/16 10:21:14;;;;;;;;;;;20.20;42.50;;;;;;5110237;28;20014;-54
2022/05/16 10:23:41;;;;;;;;;;;20.20;42.50;;;;;;5124265;27;19955;-53
2022/05/16 10:26:09;;;;;;;;;;;20.20;42.50;;;;;;5090161;28;20307;-56
2022/05/16 10:28:37;;;;;;;;;;;20.20;42.30;;;;;;5087858;28;19934;-54
2022/05/16 10:33:48;;;;;;;;;;;20.20;42.20;;;;;;5088989;28;19920;-57
2022/05/16 10:36:21;;;;;;;;;;;20.20;42.20;;;;;;5092592;28;19925;-56
2022/05/16 10:38:48;;;;;;;;;;;20.20;42.20;;;;;;5102585;28;19939;-59
2022/05/16 10:41:16;;;;;;;;;;;20.20;42.20;;;;;;5106655;28;20280;-58
2022/05/16 10:43:50;;;;;;;;;;;20.20;42.10;;;;;;5107780;28;20310;-58
2022/05/16 10:46:18;;;;;;;;;;;20.30;42.00;;;;;;5108909;28;20349;-59
2022/05/16 10:48:45;;;;;;;;;;;20.30;42.00;;;;;;5108801;28;19924;-58
2022/05/16 10:51:13;;;;;;;;;;;20.30;41.80;;;;;;5101269;28;19919;-59
2022/05/16 10:53:43;;;;;;;;;;;20.30;41.80;;;;;;5087850;28;20014;-58
2022/05/16 10:56:11;;;;;;;;;;;20.30;41.70;;;;;;5098059;28;20014;-59
2022/05/16 10:58:43;;;;;;;;;;;20.30;41.60;;;;;;5094372;28;20068;-60
2022/05/16 11:01:11;;;;;;;;;;;20.30;41.60;;;;;;5106653;28;20436;-58
2022/05/16 11:03:56;;;;;;;;;;;20.30;41.60;;;;;;5088957;28;20203;-55
2022/05/16 11:06:33;;;;;;;;;;;20.30;41.60;;;;;;5088646;28;19920;-57
2022/05/16 11:09:03;;;;;;;;;;;20.30;41.60;;;;;;5088907;28;20312;-59
2022/05/16 11:11:31;;;;;;;;;;;20.30;41.60;;;;;;5095380;28;20327;-58
2022/05/16 11:14:02;;;;;;;;;;;20.30;41.50;;;;;;5090480;28;19924;-60
2022/05/16 11:16:29;;;;;;;;;;;20.30;41.60;;;;;;5098151;28;20345;-59
2022/05/16 11:18:57;;;;;;;;;;;20.40;41.60;;;;;;5095744;28;19931;-59
2022/05/16 11:21:28;;;;;;;;;;;20.40;41.60;;;;;;5122688;27;19966;-58
2022/05/16 11:23:58;;;;;;;;;;;20.40;41.60;;;;;;5087864;28;20010;-60
2022/05/16 11:26:29;;;;;;;;;;;20.40;41.50;;;;;;5106973;28;19931;-59
2022/05/16 11:29:17;;;;;;;;;;;20.40;41.50;;;;;;5129341;27;19971;-57
2022/05/16 11:31:45;;;;;;;;;;;20.40;41.40;;;;;;5088600;28;20421;-55
2022/05/16 11:34:13;;;;;;;;;;;20.40;41.40;;;;;;5121187;27;19920;-58
2022/05/16 11:36:45;;;;;;;;;;;20.40;41.40;;;;;;5086298;28;20335;-60
2022/05/16 11:39:12;;;;;;;;;;;20.40;41.40;;;;;;5121548;28;19920;-58
2022/05/16 11:41:44;;;;;;;;;;;20.40;41.40;;;;;;5107456;28;20104;-56
2022/05/16 11:44:16;;;;;;;;;;;20.40;41.40;;;;;;5091039;28;19978;-55
2022/05/16 11:46:43;;;;;;;;;;;20.40;41.40;;;;;;5089835;28;19928;-55
2022/05/16 11:49:15;;;;;;;;;;;20.40;41.30;;;;;;5091289;28;20350;-59
2022/05/16 11:51:51;;;;;;;;;;;20.40;41.30;;;;;;5090710;28;20300;-60
2022/05/16 11:54:19;;;;;;;;;;;20.40;41.40;;;;;;5089753;28;19920;-59
2022/05/16 12:02:18;;;;;;;;;;;20.50;41.30;;;;;;5108269;28;20027;-58
2022/05/16 12:04:45;;;;;;;;;;;20.50;41.30;;;;;;5123904;27;19982;-56
2022/05/16 12:07:17;;;;;;;;;;;20.50;41.80;;;;;;5124999;27;20322;-58
2022/05/16 12:09:54;;;;;;;;;;;20.50;41.20;;;;;;5135218;27;19941;-56
2022/05/16 12:12:36;;;;;;;;;;;20.50;41.20;;;;;;5112780;28;19930;-58
2022/05/16 12:15:15;;;;;;;;;;;20.50;41.20;;;;;;5109663;28;19919;-58
2022/05/16 12:17:50;;;;;;;;;;;20.50;41.10;;;;;;5094234;28;19935;-56
2022/05/16 12:20:16;;;;;;;;;;;20.50;41.10;;;;;;5123694;27;19927;-59
2022/05/16 12:22:44;;;;;;;;;;;20.60;41.10;;;;;;5089444;28;20312;-55
2022/05/16 12:25:11;;;;;;;;;;;20.50;41.00;;;;;;5125279;27;19927;-57
2022/05/16 12:27:40;;;;;;;;;;;20.60;41.10;;;;;;5090976;28;19974;-59
2022/05/16 12:30:08;;;;;;;;;;;20.60;41.10;;;;;;5096210;28;20011;-58
2022/05/16 12:32:48;;;;;;;;;;;20.60;41.10;;;;;;5141045;27;20009;-58
2022/05/16 12:35:15;;;;;;;;;;;20.60;41.00;;;;;;5091490;28;20446;-57
2022/05/16 12:37:42;;;;;;;;;;;20.60;41.00;;;;;;5095685;28;19924;-56
2022/05/16 12:40:10;;;;;;;;;;;20.60;41.00;;;;;;5095311;28;19927;-59
2022/05/16 12:42:46;;;;;;;;;;;20.60;41.00;;;;;;5098075;28;19972;-59
2022/05/16 12:45:19;;;;;;;;;;;20.60;40.90;;;;;;5095679;28;19931;-60
2022/05/16 12:48:01;;;;;;;;;;;20.60;40.90;;;;;;5108926;28;19930;-58
2022/05/16 12:50:37;;;;;;;;;;;20.60;40.90;;;;;;5095768;28;19963;-59
2022/05/16 12:53:15;;;;;;;;;;;20.60;40.90;;;;;;5094114;28;20353;-58
2022/05/16 12:55:48;;;;;;;;;;;20.60;40.90;;;;;;5096525;28;19955;-59
2022/05/16 12:58:17;;;;;;;;;;;20.70;41.00;;;;;;5125547;27;19941;-57
2022/05/16 13:00:47;;;;;;;;;;;20.70;41.00;;;;;;5099399;28;19989;-58
2022/05/16 13:03:22;;;;;;;;;;;20.70;41.00;;;;;;5112659;28;20029;-57
2022/05/16 13:05:55;;;;;;;;;;;20.70;41.10;;;;;;5100391;28;19982;-59
2022/05/16 13:08:24;;;;;;;;;;;20.70;41.10;;;;;;5128477;27;20373;-59
2022/05/16 13:10:52;;;;;;;;;;;20.70;41.10;;;;;;5134066;27;19920;-56
2022/05/16 13:13:34;;;;;;;;;;;20.70;41.10;;;;;;5110096;28;19920;-56
2022/05/16 13:16:04;;;;;;;;;;;20.70;41.10;;;;;;5104346;28;19920;-53
2022/05/16 13:18:31;;;;;;;;;;;20.70;41.10;;;;;;5108543;28;19959;-57
2022/05/16 13:21:01;;;;;;;;;;;20.70;41.10;;;;;;5109796;28;19930;-58
2022/05/16 13:23:28;;;;;;;;;;;20.70;41.00;;;;;;5100736;28;19932;-58
2022/05/16 13:31:36;;;;;;;;;;;20.70;41.00;;;;;;5124076;27;19934;-57
2022/05/16 13:34:03;;;;;;;;;;;20.80;41.10;;;;;;5091757;28;20318;-59
2022/05/16 13:36:29;;;;;;;;;;;20.80;41.10;;;;;;5109727;28;19920;-59
2022/05/16 13:38:58;;;;;;;;;;;20.80;41.00;;;;;;5090759;28;19927;-56
2022/05/16 13:41:25;;;;;;;;;;;20.80;41.00;;;;;;5122969;27;19998;-57
2022/05/16 13:43:51;;;;;;;;;;;20.80;40.90;;;;;;5088929;28;20015;-58
2022/05/16 13:46:18;;;;;;;;;;;20.80;40.90;;;;;;5105101;28;20007;-57
2022/05/16 13:48:54;;;;;;;;;;;20.80;40.90;;;;;;5099274;28;20403;-56
2022/05/16 13:51:21;;;;;;;;;;;20.80;40.80;;;;;;5108840;28;20368;-57
2022/05/16 13:53:47;;;;;;;;;;;20.80;40.80;;;;;;5093429;28;19928;-58
2022/05/16 13:56:15;;;;;;;;;;;20.80;40.90;;;;;;5101747;28;19924;-57
2022/05/16 13:58:42;;;;;;;;;;;20.80;40.80;;;;;;5133863;27;20333;-58
2022/05/16 14:01:11;;;;;;;;;;;20.80;40.80;;;;;;5127073;27;19920;-57
2022/05/16 14:03:38;;;;;;;;;;;20.80;40.70;;;;;;5089164;28;20010;-59
2022/05/16 14:06:05;;;;;;;;;;;20.80;40.70;;;;;;5123544;27;20023;-58
2022/05/16 14:08:41;;;;;;;;;;;20.80;40.70;;;;;;5089805;28;19924;-59
2022/05/16 14:11:07;;;;;;;;;;;20.80;40.70;;;;;;5094595;28;20020;-58
2022/05/16 14:13:36;;;;;;;;;;;20.90;40.90;;;;;;5096440;28;19921;-57
2022/05/16 14:16:06;;;;;;;;;;;20.80;40.80;;;;;;5123751;27;20120;-57
2022/05/16 14:18:37;;;;;;;;;;;20.80;40.80;;;;;;5122522;27;19932;-56
2022/05/16 14:21:06;;;;;;;;;;;20.90;40.90;;;;;;5106854;28;19924;-57
2022/05/16 14:23:34;;;;;;;;;;;20.80;40.80;;;;;;5108062;28;19988;-59
2022/05/16 14:26:12;;;;;;;;;;;20.90;40.90;;;;;;5105572;28;19932;-58
2022/05/16 14:28:44;;;;;;;;;;;20.90;40.90;;;;;;5131424;27;20022;-58
2022/05/16 14:31:19;;;;;;;;;;;20.90;40.80;;;;;;5093529;28;19969;-59
2022/05/16 14:33:50;;;;;;;;;;;20.90;40.80;;;;;;5104689;28;19919;-57
2022/05/16 14:36:22;;;;;;;;;;;20.90;40.80;;;;;;5109236;28;20361;-58
2022/05/16 14:38:50;;;;;;;;;;;20.90;40.80;;;;;;5107962;28;20022;-59
2022/05/16 14:41:17;;;;;;;;;;;20.90;40.80;;;;;;5106427;28;19964;-58
2022/05/16 14:43:45;;;;;;;;;;;20.90;40.80;;;;;;5107547;28;20000;-57
2022/05/16 14:49:00;;;;;;;;;;;20.90;40.70;;;;;;5120294;27;19924;-57
2022/05/16 14:51:28;;;;;;;;;;;20.90;40.70;;;;;;5094870;28;20381;-58
2022/05/16 14:53:55;;;;;;;;;;;20.90;40.70;;;;;;5094849;28;19993;-59
2022/05/16 14:56:22;;;;;;;;;;;20.90;40.70;;;;;;5096403;28;19930;-57
2022/05/16 14:58:49;;;;;;;;;;;20.90;40.70;;;;;;5103747;28;20064;-56
2022/05/16 15:04:05;;;;;;;;;;;20.90;40.70;;;;;;5073217;28;19922;-57
2022/05/16 15:06:36;;;;;;;;;;;20.90;40.70;;;;;;5097059;28;19924;-56
2022/05/16 15:09:04;;;;;;;;;;;20.90;40.70;;;;;;5100383;28;19928;-57